<?xml version="1.0" encoding="UTF-8" standalone="no" ?>
<gpx xmlns="http://www.topografix.com/GPX/1/1" creator="MapSource 6.15.5" version="1.1" xmlns:xsi="http://www.w3.org/2001/XMLSchema-instance" xsi:schemaLocation="http://www.topografix.com/GPX/1/1 http://www.topografix.com/GPX/1/1/gpx.xsd">

  <metadata>
    <link href="http://www.garmin.com">
      <text>Garmin International</text>
    </link>
    <time>2015-10-04T17:47:44Z</time>
    <bounds maxlat="51.9460098" maxlon="7.2481748" minlat="51.8952309" minlon="7.1896696"/>
  </metadata>

  <trk>
    <name>Track</name>
    <extensions>
      <gpxx:TrackExtension xmlns:gpxx="http://www.garmin.com/xmlschemas/GpxExtensions/v3">
        <gpxx:DisplayColor>White</gpxx:DisplayColor>
      </gpxx:TrackExtension>
    </extensions>
    <trkseg>
      <trkpt lat="51.8958507" lon="7.1897026">
        <ele>75.3632813</ele>
      </trkpt>
      <trkpt lat="51.8958238" lon="7.1896696">
        <ele>75.2617188</ele>
      </trkpt>
      <trkpt lat="51.8961202" lon="7.1900974">
        <ele>75.8203125</ele>
      </trkpt>
      <trkpt lat="51.8959854" lon="7.1902618">
        <ele>75.7851563</ele>
      </trkpt>
      <trkpt lat="51.8956621" lon="7.1907224">
        <ele>76.1210938</ele>
      </trkpt>
      <trkpt lat="51.8956352" lon="7.1907224">
        <ele>76.1210938</ele>
      </trkpt>
      <trkpt lat="51.8952309" lon="7.1913146">
        <ele>76.8593750</ele>
      </trkpt>
      <trkpt lat="51.8956621" lon="7.1922687">
        <ele>77.6875000</ele>
      </trkpt>
      <trkpt lat="51.8960663" lon="7.1916107">
        <ele>77.1132813</ele>
      </trkpt>
      <trkpt lat="51.8963628" lon="7.1912817">
        <ele>77.1992188</ele>
      </trkpt>
      <trkpt lat="51.8964706" lon="7.1916765">
        <ele>77.7109375</ele>
      </trkpt>
      <trkpt lat="51.8966053" lon="7.1919397">
        <ele>78.0000000</ele>
      </trkpt>
      <trkpt lat="51.8967670" lon="7.1924990">
        <ele>78.7343750</ele>
      </trkpt>
      <trkpt lat="51.8970290" lon="7.1919616">
        <ele>72.7169189</ele>
        <time>2015-03-12T11:21:14Z</time>
      </trkpt>
      <trkpt lat="51.8973479" lon="7.1926161">
        <ele>72.2362061</ele>
        <time>2015-03-12T11:20:57Z</time>
      </trkpt>
      <trkpt lat="51.8977016" lon="7.1931263">
        <ele>74.6395264</ele>
        <time>2015-03-12T11:20:42Z</time>
      </trkpt>
      <trkpt lat="51.8980505" lon="7.1934925">
        <ele>74.1588135</ele>
        <time>2015-03-12T11:20:28Z</time>
      </trkpt>
      <trkpt lat="51.8984554" lon="7.1940806">
        <ele>76.0814209</ele>
        <time>2015-03-12T11:20:12Z</time>
      </trkpt>
      <trkpt lat="51.8989076" lon="7.1947703">
        <ele>76.5621338</ele>
        <time>2015-03-12T11:19:55Z</time>
      </trkpt>
      <trkpt lat="51.8993177" lon="7.1953950">
        <ele>80.8906250</ele>
      </trkpt>
      <trkpt lat="51.8995602" lon="7.1956911">
        <ele>81.0156250</ele>
      </trkpt>
      <trkpt lat="51.8992907" lon="7.1962175">
        <ele>81.3632813</ele>
      </trkpt>
      <trkpt lat="51.8992368" lon="7.1968425">
        <ele>81.9726563</ele>
      </trkpt>
      <trkpt lat="51.8992370" lon="7.1969177">
        <ele>81.9804688</ele>
      </trkpt>
      <trkpt lat="51.8989944" lon="7.1982008">
        <ele>82.9023438</ele>
      </trkpt>
      <trkpt lat="51.8989674" lon="7.1989246">
        <ele>82.9023438</ele>
      </trkpt>
      <trkpt lat="51.8988057" lon="7.1993852">
        <ele>82.9023438</ele>
      </trkpt>
      <trkpt lat="51.8981051" lon="7.1997142">
        <ele>84.1210938</ele>
      </trkpt>
      <trkpt lat="51.8982667" lon="7.2003722">
        <ele>84.1250000</ele>
      </trkpt>
      <trkpt lat="51.8981590" lon="7.2007012">
        <ele>84.1250000</ele>
      </trkpt>
      <trkpt lat="51.8983745" lon="7.2011617">
        <ele>84.1250000</ele>
      </trkpt>
      <trkpt lat="51.8998837" lon="7.2033331">
        <ele>84.2265625</ele>
      </trkpt>
      <trkpt lat="51.9004227" lon="7.2039910">
        <ele>85.0390625</ele>
      </trkpt>
      <trkpt lat="51.9028751" lon="7.2053070">
        <ele>90.8515625</ele>
      </trkpt>
      <trkpt lat="51.9038183" lon="7.2057676">
        <ele>95.6992188</ele>
      </trkpt>
      <trkpt lat="51.9043414" lon="7.2060009">
        <ele>93.8658447</ele>
        <time>2015-03-12T11:15:30Z</time>
      </trkpt>
      <trkpt lat="51.9049351" lon="7.2068002">
        <ele>95.3077393</ele>
        <time>2015-03-12T11:15:14Z</time>
      </trkpt>
      <trkpt lat="51.9057627" lon="7.2079019">
        <ele>93.8658447</ele>
        <time>2015-03-12T11:14:47Z</time>
      </trkpt>
      <trkpt lat="51.9067121" lon="7.2093104">
        <ele>90.9819336</ele>
        <time>2015-03-12T11:14:17Z</time>
      </trkpt>
      <trkpt lat="51.9074875" lon="7.2104214">
        <ele>89.5399170</ele>
        <time>2015-03-12T11:13:55Z</time>
      </trkpt>
      <trkpt lat="51.9086010" lon="7.2115830">
        <ele>87.6171875</ele>
        <time>2015-03-12T11:13:27Z</time>
      </trkpt>
      <trkpt lat="51.9094936" lon="7.2125144">
        <ele>87.6171875</ele>
        <time>2015-03-12T11:13:07Z</time>
      </trkpt>
      <trkpt lat="51.9099354" lon="7.2130147">
        <ele>88.0980225</ele>
        <time>2015-03-12T11:12:53Z</time>
      </trkpt>
      <trkpt lat="51.9104534" lon="7.2137554">
        <ele>87.6171875</ele>
        <time>2015-03-12T11:12:38Z</time>
      </trkpt>
      <trkpt lat="51.9109469" lon="7.2144519">
        <ele>88.5787354</ele>
        <time>2015-03-12T11:12:23Z</time>
      </trkpt>
      <trkpt lat="51.9107580" lon="7.2154445">
        <ele>89.5399170</ele>
        <time>2015-03-12T11:12:05Z</time>
      </trkpt>
      <trkpt lat="51.9104969" lon="7.2161766">
        <ele>88.5787354</ele>
        <time>2015-03-12T11:11:47Z</time>
      </trkpt>
      <trkpt lat="51.9102899" lon="7.2167409">
        <ele>88.0980225</ele>
        <time>2015-03-12T11:11:33Z</time>
      </trkpt>
      <trkpt lat="51.9099235" lon="7.2177242">
        <ele>86.6560059</ele>
        <time>2015-03-12T11:11:16Z</time>
      </trkpt>
      <trkpt lat="51.9096814" lon="7.2183351">
        <ele>86.6560059</ele>
        <time>2015-03-12T11:11:07Z</time>
      </trkpt>
      <trkpt lat="51.9093827" lon="7.2200986">
        <ele>86.6560059</ele>
        <time>2015-03-12T11:10:44Z</time>
      </trkpt>
      <trkpt lat="51.9093176" lon="7.2214062">
        <ele>86.6560059</ele>
        <time>2015-03-12T11:10:28Z</time>
      </trkpt>
      <trkpt lat="51.9093554" lon="7.2230363">
        <ele>86.6560059</ele>
        <time>2015-03-12T11:10:09Z</time>
      </trkpt>
      <trkpt lat="51.9091755" lon="7.2253451">
        <ele>86.1752930</ele>
        <time>2015-03-12T11:09:43Z</time>
      </trkpt>
      <trkpt lat="51.9091967" lon="7.2257065">
        <ele>86.1752930</ele>
        <time>2015-03-12T11:09:39Z</time>
      </trkpt>
      <trkpt lat="51.9092291" lon="7.2258868">
        <ele>86.1752930</ele>
        <time>2015-03-12T11:09:37Z</time>
      </trkpt>
      <trkpt lat="51.9095787" lon="7.2280142">
        <ele>86.6560059</ele>
        <time>2015-03-12T11:09:14Z</time>
      </trkpt>
      <trkpt lat="51.9098658" lon="7.2298612">
        <ele>89.5399170</ele>
        <time>2015-03-12T11:08:54Z</time>
      </trkpt>
      <trkpt lat="51.9102570" lon="7.2320622">
        <ele>90.5013428</ele>
        <time>2015-03-12T11:08:30Z</time>
      </trkpt>
      <trkpt lat="51.9105371" lon="7.2337681">
        <ele>91.9432373</ele>
        <time>2015-03-12T11:08:13Z</time>
      </trkpt>
      <trkpt lat="51.9108240" lon="7.2354060">
        <ele>94.3465576</ele>
        <time>2015-03-12T11:07:56Z</time>
      </trkpt>
      <trkpt lat="51.9111564" lon="7.2370503">
        <ele>96.7498779</ele>
        <time>2015-03-12T11:07:39Z</time>
      </trkpt>
      <trkpt lat="51.9113231" lon="7.2381234">
        <ele>96.7498779</ele>
        <time>2015-03-12T11:07:34Z</time>
      </trkpt>
      <trkpt lat="51.9113299" lon="7.2381530">
        <ele>97.7111816</ele>
        <time>2015-03-12T11:07:27Z</time>
      </trkpt>
      <trkpt lat="51.9114873" lon="7.2388387">
        <ele>97.2304688</ele>
        <time>2015-03-12T11:07:21Z</time>
      </trkpt>
      <trkpt lat="51.9115196" lon="7.2389796">
        <ele>97.7111816</ele>
        <time>2015-03-12T11:07:20Z</time>
      </trkpt>
      <trkpt lat="51.9118571" lon="7.2393406">
        <ele>99.6337891</ele>
        <time>2015-03-12T11:07:14Z</time>
      </trkpt>
      <trkpt lat="51.9122475" lon="7.2391875">
        <ele>102.5177002</ele>
        <time>2015-03-12T11:07:08Z</time>
      </trkpt>
      <trkpt lat="51.9124250" lon="7.2391178">
        <ele>104.4404297</ele>
        <time>2015-03-12T11:07:05Z</time>
      </trkpt>
      <trkpt lat="51.9126481" lon="7.2390304">
        <ele>106.8436279</ele>
        <time>2015-03-12T11:07:00Z</time>
      </trkpt>
      <trkpt lat="51.9127607" lon="7.2388101">
        <ele>108.7662354</ele>
        <time>2015-03-12T11:06:55Z</time>
      </trkpt>
      <trkpt lat="51.9127607" lon="7.2388101">
        <ele>108.7662354</ele>
        <time>2015-03-12T11:06:43Z</time>
      </trkpt>
      <trkpt lat="51.9128944" lon="7.2386204">
        <ele>110.2082520</ele>
        <time>2015-03-12T11:06:31Z</time>
      </trkpt>
      <trkpt lat="51.9134963" lon="7.2391216">
        <ele>113.5729980</ele>
        <time>2015-03-12T11:06:20Z</time>
      </trkpt>
      <trkpt lat="51.9140934" lon="7.2393766">
        <ele>116.9375000</ele>
        <time>2015-03-12T11:06:08Z</time>
      </trkpt>
      <trkpt lat="51.9142810" lon="7.2395276">
        <ele>117.8988037</ele>
        <time>2015-03-12T11:06:03Z</time>
      </trkpt>
      <trkpt lat="51.9147335" lon="7.2405594">
        <ele>118.3793945</ele>
        <time>2015-03-12T11:05:44Z</time>
      </trkpt>
      <trkpt lat="51.9150342" lon="7.2413192">
        <ele>118.3793945</ele>
        <time>2015-03-12T11:05:29Z</time>
      </trkpt>
      <trkpt lat="51.9151782" lon="7.2424523">
        <ele>115.4956055</ele>
        <time>2015-03-12T11:05:09Z</time>
      </trkpt>
      <trkpt lat="51.9152712" lon="7.2428237">
        <ele>115.4956055</ele>
        <time>2015-03-12T11:05:04Z</time>
      </trkpt>
      <trkpt lat="51.9157384" lon="7.2435134">
        <ele>116.9375000</ele>
        <time>2015-03-12T11:04:52Z</time>
      </trkpt>
      <trkpt lat="51.9159154" lon="7.2437506">
        <ele>118.3793945</ele>
        <time>2015-03-12T11:04:47Z</time>
      </trkpt>
      <trkpt lat="51.9166508" lon="7.2447020">
        <ele>120.7828369</ele>
        <time>2015-03-12T11:04:27Z</time>
      </trkpt>
      <trkpt lat="51.9171757" lon="7.2454631">
        <ele>121.2635498</ele>
        <time>2015-03-12T11:04:09Z</time>
      </trkpt>
      <trkpt lat="51.9175974" lon="7.2462229">
        <ele>122.2247314</ele>
        <time>2015-03-12T11:03:54Z</time>
      </trkpt>
      <trkpt lat="51.9177911" lon="7.2464416">
        <ele>123.1861572</ele>
        <time>2015-03-12T11:03:32Z</time>
      </trkpt>
      <trkpt lat="51.9177585" lon="7.2464975">
        <ele>122.7054443</ele>
        <time>2015-03-12T11:02:23Z</time>
      </trkpt>
      <trkpt lat="51.9178278" lon="7.2465119">
        <ele>122.2247314</ele>
        <time>2015-03-12T11:02:03Z</time>
      </trkpt>
      <trkpt lat="51.9180035" lon="7.2467794">
        <ele>124.1473389</ele>
        <time>2015-03-12T11:01:43Z</time>
      </trkpt>
      <trkpt lat="51.9182588" lon="7.2469017">
        <ele>125.1087646</ele>
        <time>2015-03-12T11:01:22Z</time>
      </trkpt>
      <trkpt lat="51.9183593" lon="7.2470656">
        <ele>125.1087646</ele>
        <time>2015-03-12T11:01:10Z</time>
      </trkpt>
      <trkpt lat="51.9186550" lon="7.2471406">
        <ele>127.5119629</ele>
        <time>2015-03-12T11:00:57Z</time>
      </trkpt>
      <trkpt lat="51.9191570" lon="7.2474386">
        <ele>128.4733887</ele>
        <time>2015-03-12T11:00:43Z</time>
      </trkpt>
      <trkpt lat="51.9196744" lon="7.2476760">
        <ele>129.9152832</ele>
        <time>2015-03-12T11:00:27Z</time>
      </trkpt>
      <trkpt lat="51.9201218" lon="7.2479345">
        <ele>131.3572998</ele>
        <time>2015-03-12T11:00:15Z</time>
      </trkpt>
      <trkpt lat="51.9205152" lon="7.2481748">
        <ele>135.2025146</ele>
        <time>2015-03-12T11:00:06Z</time>
      </trkpt>
      <trkpt lat="51.9206090" lon="7.2481552">
        <ele>135.6831055</ele>
        <time>2015-03-12T11:00:04Z</time>
      </trkpt>
      <trkpt lat="51.9208172" lon="7.2481094">
        <ele>138.0865479</ele>
        <time>2015-03-12T10:59:59Z</time>
      </trkpt>
      <trkpt lat="51.9208493" lon="7.2480934">
        <ele>138.0865479</ele>
        <time>2015-03-12T10:59:58Z</time>
      </trkpt>
      <trkpt lat="51.9211464" lon="7.2479794">
        <ele>141.9317627</ele>
        <time>2015-03-12T10:59:47Z</time>
      </trkpt>
      <trkpt lat="51.9215239" lon="7.2479878">
        <ele>144.8157959</ele>
        <time>2015-03-12T10:59:34Z</time>
      </trkpt>
      <trkpt lat="51.9216546" lon="7.2476687">
        <ele>145.2963867</ele>
        <time>2015-03-12T10:59:28Z</time>
      </trkpt>
      <trkpt lat="51.9219658" lon="7.2469092">
        <ele>148.1804199</ele>
        <time>2015-03-12T10:59:16Z</time>
      </trkpt>
      <trkpt lat="51.9223244" lon="7.2460341">
        <ele>150.5836182</ele>
        <time>2015-03-12T10:59:00Z</time>
      </trkpt>
      <trkpt lat="51.9226593" lon="7.2451755">
        <ele>152.0257568</ele>
        <time>2015-03-12T10:58:45Z</time>
      </trkpt>
      <trkpt lat="51.9231021" lon="7.2442668">
        <ele>151.5449219</ele>
        <time>2015-03-12T10:58:24Z</time>
      </trkpt>
      <trkpt lat="51.9234010" lon="7.2434867">
        <ele>149.1416016</ele>
        <time>2015-03-12T10:58:06Z</time>
      </trkpt>
      <trkpt lat="51.9236860" lon="7.2428516">
        <ele>147.2189941</ele>
        <time>2015-03-12T10:57:47Z</time>
      </trkpt>
      <trkpt lat="51.9240016" lon="7.2422091">
        <ele>144.8157959</ele>
        <time>2015-03-12T10:57:29Z</time>
      </trkpt>
      <trkpt lat="51.9242239" lon="7.2416952">
        <ele>143.8543701</ele>
        <time>2015-03-12T10:57:16Z</time>
      </trkpt>
      <trkpt lat="51.9244211" lon="7.2412393">
        <ele>141.9317627</ele>
        <time>2015-03-12T10:57:04Z</time>
      </trkpt>
      <trkpt lat="51.9247945" lon="7.2403763">
        <ele>139.0478516</ele>
        <time>2015-03-12T10:56:45Z</time>
      </trkpt>
      <trkpt lat="51.9249392" lon="7.2401757">
        <ele>139.0478516</ele>
        <time>2015-03-12T10:56:39Z</time>
      </trkpt>
      <trkpt lat="51.9252447" lon="7.2406950">
        <ele>137.1252441</ele>
        <time>2015-03-12T10:56:29Z</time>
      </trkpt>
      <trkpt lat="51.9253028" lon="7.2407939">
        <ele>137.6058350</ele>
        <time>2015-03-12T10:56:27Z</time>
      </trkpt>
      <trkpt lat="51.9255876" lon="7.2410469">
        <ele>137.6058350</ele>
        <time>2015-03-12T10:56:20Z</time>
      </trkpt>
      <trkpt lat="51.9258897" lon="7.2412844">
        <ele>136.6446533</ele>
        <time>2015-03-12T10:56:13Z</time>
      </trkpt>
      <trkpt lat="51.9262404" lon="7.2416710">
        <ele>137.6058350</ele>
        <time>2015-03-12T10:56:06Z</time>
      </trkpt>
      <trkpt lat="51.9268690" lon="7.2423760">
        <ele>140.4898682</ele>
        <time>2015-03-12T10:55:49Z</time>
      </trkpt>
      <trkpt lat="51.9269811" lon="7.2424783">
        <ele>140.9704590</ele>
        <time>2015-03-12T10:55:45Z</time>
      </trkpt>
      <trkpt lat="51.9277685" lon="7.2431972">
        <ele>140.9704590</ele>
        <time>2015-03-12T10:55:22Z</time>
      </trkpt>
      <trkpt lat="51.9279332" lon="7.2432391">
        <ele>140.9704590</ele>
        <time>2015-03-12T10:55:18Z</time>
      </trkpt>
      <trkpt lat="51.9287067" lon="7.2427574">
        <ele>140.0091553</ele>
        <time>2015-03-12T10:54:56Z</time>
      </trkpt>
      <trkpt lat="51.9294463" lon="7.2422122">
        <ele>140.0091553</ele>
        <time>2015-03-12T10:54:35Z</time>
      </trkpt>
      <trkpt lat="51.9301874" lon="7.2417483">
        <ele>139.0478516</ele>
        <time>2015-03-12T10:54:14Z</time>
      </trkpt>
      <trkpt lat="51.9308833" lon="7.2414991">
        <ele>138.5672607</ele>
        <time>2015-03-12T10:53:54Z</time>
      </trkpt>
      <trkpt lat="51.9316274" lon="7.2413338">
        <ele>137.6058350</ele>
        <time>2015-03-12T10:53:34Z</time>
      </trkpt>
      <trkpt lat="51.9320829" lon="7.2411223">
        <ele>137.6058350</ele>
        <time>2015-03-12T10:53:19Z</time>
      </trkpt>
      <trkpt lat="51.9326254" lon="7.2408877">
        <ele>137.1252441</ele>
        <time>2015-03-12T10:53:01Z</time>
      </trkpt>
      <trkpt lat="51.9331816" lon="7.2406575">
        <ele>134.2412109</ele>
        <time>2015-03-12T10:52:41Z</time>
      </trkpt>
      <trkpt lat="51.9337907" lon="7.2404283">
        <ele>132.3186035</ele>
        <time>2015-03-12T10:52:18Z</time>
      </trkpt>
      <trkpt lat="51.9345060" lon="7.2401795">
        <ele>128.4733887</ele>
        <time>2015-03-12T10:51:53Z</time>
      </trkpt>
      <trkpt lat="51.9353768" lon="7.2398766">
        <ele>126.0699463</ele>
        <time>2015-03-12T10:51:26Z</time>
      </trkpt>
      <trkpt lat="51.9361776" lon="7.2397729">
        <ele>124.1473389</ele>
        <time>2015-03-12T10:51:01Z</time>
      </trkpt>
      <trkpt lat="51.9362085" lon="7.2397694">
        <ele>124.1473389</ele>
        <time>2015-03-12T10:51:00Z</time>
      </trkpt>
      <trkpt lat="51.9370878" lon="7.2396664">
        <ele>120.7828369</ele>
        <time>2015-03-12T10:50:29Z</time>
      </trkpt>
      <trkpt lat="51.9377056" lon="7.2395941">
        <ele>117.8988037</ele>
        <time>2015-03-12T10:50:05Z</time>
      </trkpt>
      <trkpt lat="51.9382400" lon="7.2395316">
        <ele>114.0535889</ele>
        <time>2015-03-12T10:49:46Z</time>
      </trkpt>
      <trkpt lat="51.9388250" lon="7.2394630">
        <ele>111.1695557</ele>
        <time>2015-03-12T10:49:26Z</time>
      </trkpt>
      <trkpt lat="51.9392418" lon="7.2394142">
        <ele>107.8050537</ele>
        <time>2015-03-12T10:49:13Z</time>
      </trkpt>
      <trkpt lat="51.9394729" lon="7.2395869">
        <ele>106.8436279</ele>
        <time>2015-03-12T10:49:07Z</time>
      </trkpt>
      <trkpt lat="51.9395399" lon="7.2402906">
        <ele>108.7662354</ele>
        <time>2015-03-12T10:48:57Z</time>
      </trkpt>
      <trkpt lat="51.9396138" lon="7.2402906">
        <ele>108.7662354</ele>
        <time>2015-03-12T10:48:48Z</time>
      </trkpt>
      <trkpt lat="51.9401882" lon="7.2402892">
        <ele>106.3630371</ele>
        <time>2015-03-12T10:48:28Z</time>
      </trkpt>
      <trkpt lat="51.9408560" lon="7.2398006">
        <ele>103.4790039</ele>
        <time>2015-03-12T10:48:04Z</time>
      </trkpt>
      <trkpt lat="51.9415092" lon="7.2391643">
        <ele>100.5950928</ele>
        <time>2015-03-12T10:47:40Z</time>
      </trkpt>
      <trkpt lat="51.9421745" lon="7.2385074">
        <ele>97.2304688</ele>
        <time>2015-03-12T10:47:17Z</time>
      </trkpt>
      <trkpt lat="51.9428279" lon="7.2375788">
        <ele>94.3465576</ele>
        <time>2015-03-12T10:46:58Z</time>
      </trkpt>
      <trkpt lat="51.9435822" lon="7.2367815">
        <ele>95.3077393</ele>
        <time>2015-03-12T10:46:43Z</time>
      </trkpt>
      <trkpt lat="51.9436425" lon="7.2367247">
        <ele>95.3077393</ele>
        <time>2015-03-12T10:46:42Z</time>
      </trkpt>
      <trkpt lat="51.9445996" lon="7.2358239">
        <ele>98.6724854</ele>
        <time>2015-03-12T10:46:26Z</time>
      </trkpt>
      <trkpt lat="51.9449318" lon="7.2355111">
        <ele>102.0371094</ele>
        <time>2015-03-12T10:46:20Z</time>
      </trkpt>
      <trkpt lat="51.9452773" lon="7.2351861">
        <ele>104.9210205</ele>
        <time>2015-03-12T10:46:14Z</time>
      </trkpt>
      <trkpt lat="51.9456263" lon="7.2348857">
        <ele>108.2856445</ele>
        <time>2015-03-12T10:46:07Z</time>
      </trkpt>
      <trkpt lat="51.9457263" lon="7.2348090">
        <ele>108.2856445</ele>
        <time>2015-03-12T10:46:05Z</time>
      </trkpt>
      <trkpt lat="51.9458312" lon="7.2347283">
        <ele>109.2469482</ele>
        <time>2015-03-12T10:46:03Z</time>
      </trkpt>
      <trkpt lat="51.9460098" lon="7.2344680">
        <ele>111.1695557</ele>
        <time>2015-03-12T10:45:57Z</time>
      </trkpt>
      <trkpt lat="51.9459366" lon="7.2336495">
        <ele>113.5729980</ele>
        <time>2015-03-12T10:45:46Z</time>
      </trkpt>
      <trkpt lat="51.9459298" lon="7.2335731">
        <ele>113.5729980</ele>
        <time>2015-03-12T10:45:45Z</time>
      </trkpt>
      <trkpt lat="51.9458606" lon="7.2327992">
        <ele>117.4182129</ele>
        <time>2015-03-12T10:45:36Z</time>
      </trkpt>
      <trkpt lat="51.9457646" lon="7.2317268">
        <ele>118.8601074</ele>
        <time>2015-03-12T10:45:23Z</time>
      </trkpt>
      <trkpt lat="51.9457548" lon="7.2316165">
        <ele>118.8601074</ele>
        <time>2015-03-12T10:45:22Z</time>
      </trkpt>
      <trkpt lat="51.9456929" lon="7.2309245">
        <ele>122.2247314</ele>
        <time>2015-03-12T10:45:14Z</time>
      </trkpt>
      <trkpt lat="51.9456020" lon="7.2299075">
        <ele>122.7054443</ele>
        <time>2015-03-12T10:44:58Z</time>
      </trkpt>
      <trkpt lat="51.9453764" lon="7.2282743">
        <ele>124.6280518</ele>
        <time>2015-03-12T10:44:33Z</time>
      </trkpt>
      <trkpt lat="51.9452718" lon="7.2276387">
        <ele>126.0699463</ele>
        <time>2015-03-12T10:44:21Z</time>
      </trkpt>
      <trkpt lat="51.9450625" lon="7.2261950">
        <ele>128.4733887</ele>
        <time>2015-03-12T10:43:57Z</time>
      </trkpt>
      <trkpt lat="51.9449177" lon="7.2250421">
        <ele>128.9541016</ele>
        <time>2015-03-12T10:43:39Z</time>
      </trkpt>
      <trkpt lat="51.9448542" lon="7.2249117">
        <ele>129.4346924</ele>
        <time>2015-03-12T10:43:35Z</time>
      </trkpt>
      <trkpt lat="51.9444826" lon="7.2249420">
        <ele>127.9925537</ele>
        <time>2015-03-12T10:43:21Z</time>
      </trkpt>
      <trkpt lat="51.9441181" lon="7.2249934">
        <ele>128.4733887</ele>
        <time>2015-03-12T10:43:04Z</time>
      </trkpt>
      <trkpt lat="51.9437617" lon="7.2250114">
        <ele>127.5119629</ele>
        <time>2015-03-12T10:42:45Z</time>
      </trkpt>
      <trkpt lat="51.9433773" lon="7.2250578">
        <ele>126.5506592</ele>
        <time>2015-03-12T10:42:27Z</time>
      </trkpt>
      <trkpt lat="51.9430246" lon="7.2252367">
        <ele>124.6280518</ele>
        <time>2015-03-12T10:42:09Z</time>
      </trkpt>
      <trkpt lat="51.9427019" lon="7.2254369">
        <ele>121.2635498</ele>
        <time>2015-03-12T10:41:54Z</time>
      </trkpt>
      <trkpt lat="51.9425590" lon="7.2249642">
        <ele>120.3021240</ele>
        <time>2015-03-12T10:41:41Z</time>
      </trkpt>
      <trkpt lat="51.9421971" lon="7.2237847">
        <ele>122.7054443</ele>
        <time>2015-03-12T10:41:16Z</time>
      </trkpt>
      <trkpt lat="51.9418795" lon="7.2226367">
        <ele>123.6667480</ele>
        <time>2015-03-12T10:40:53Z</time>
      </trkpt>
      <trkpt lat="51.9418060" lon="7.2224217">
        <ele>125.1087646</ele>
        <time>2015-03-12T10:40:48Z</time>
      </trkpt>
      <trkpt lat="51.9414719" lon="7.2213255">
        <ele>125.1087646</ele>
        <time>2015-03-12T10:40:21Z</time>
      </trkpt>
      <trkpt lat="51.9412072" lon="7.2204162">
        <ele>125.1087646</ele>
        <time>2015-03-12T10:39:58Z</time>
      </trkpt>
      <trkpt lat="51.9409653" lon="7.2196727">
        <ele>124.6280518</ele>
        <time>2015-03-12T10:39:36Z</time>
      </trkpt>
      <trkpt lat="51.9408074" lon="7.2185684">
        <ele>123.1861572</ele>
        <time>2015-03-12T10:39:06Z</time>
      </trkpt>
      <trkpt lat="51.9408043" lon="7.2185364">
        <ele>123.1861572</ele>
        <time>2015-03-12T10:39:05Z</time>
      </trkpt>
      <trkpt lat="51.9407144" lon="7.2176525">
        <ele>120.3021240</ele>
        <time>2015-03-12T10:38:40Z</time>
      </trkpt>
      <trkpt lat="51.9406666" lon="7.2172922">
        <ele>118.3793945</ele>
        <time>2015-03-12T10:38:28Z</time>
      </trkpt>
      <trkpt lat="51.9403578" lon="7.2172588">
        <ele>117.4182129</ele>
        <time>2015-03-12T10:38:14Z</time>
      </trkpt>
      <trkpt lat="51.9399171" lon="7.2171891">
        <ele>114.5341797</ele>
        <time>2015-03-12T10:37:55Z</time>
      </trkpt>
      <trkpt lat="51.9395242" lon="7.2171278">
        <ele>111.1695557</ele>
        <time>2015-03-12T10:37:38Z</time>
      </trkpt>
      <trkpt lat="51.9391118" lon="7.2170610">
        <ele>107.8050537</ele>
        <time>2015-03-12T10:37:20Z</time>
      </trkpt>
      <trkpt lat="51.9386822" lon="7.2170174">
        <ele>105.4017334</ele>
        <time>2015-03-12T10:37:02Z</time>
      </trkpt>
      <trkpt lat="51.9386662" lon="7.2170027">
        <ele>105.4017334</ele>
        <time>2015-03-12T10:37:00Z</time>
      </trkpt>
      <trkpt lat="51.9386602" lon="7.2169665">
        <ele>104.4404297</ele>
        <time>2015-03-12T10:36:58Z</time>
      </trkpt>
      <trkpt lat="51.9386607" lon="7.2167352">
        <ele>103.9597168</ele>
        <time>2015-03-12T10:36:47Z</time>
      </trkpt>
      <trkpt lat="51.9386518" lon="7.2161692">
        <ele>102.0371094</ele>
        <time>2015-03-12T10:36:18Z</time>
      </trkpt>
      <trkpt lat="51.9386439" lon="7.2156187">
        <ele>98.6724854</ele>
        <time>2015-03-12T10:35:50Z</time>
      </trkpt>
      <trkpt lat="51.9386263" lon="7.2153513">
        <ele>96.7498779</ele>
        <time>2015-03-12T10:35:35Z</time>
      </trkpt>
      <trkpt lat="51.9386293" lon="7.2152573">
        <ele>95.3077393</ele>
        <time>2015-03-12T10:35:32Z</time>
      </trkpt>
      <trkpt lat="51.9386497" lon="7.2145322">
        <ele>96.2692871</ele>
        <time>2015-03-12T10:35:16Z</time>
      </trkpt>
      <trkpt lat="51.9386405" lon="7.2140288">
        <ele>97.2304688</ele>
        <time>2015-03-12T10:35:04Z</time>
      </trkpt>
      <trkpt lat="51.9386390" lon="7.2138007">
        <ele>98.6724854</ele>
        <time>2015-03-12T10:35:00Z</time>
      </trkpt>
      <trkpt lat="51.9386327" lon="7.2130328">
        <ele>101.0756836</ele>
        <time>2015-03-12T10:34:43Z</time>
      </trkpt>
      <trkpt lat="51.9386536" lon="7.2119840">
        <ele>102.5177002</ele>
        <time>2015-03-12T10:34:18Z</time>
      </trkpt>
      <trkpt lat="51.9386643" lon="7.2109839">
        <ele>103.9597168</ele>
        <time>2015-03-12T10:33:53Z</time>
      </trkpt>
      <trkpt lat="51.9386283" lon="7.2106252">
        <ele>104.9210205</ele>
        <time>2015-03-12T10:33:41Z</time>
      </trkpt>
      <trkpt lat="51.9382929" lon="7.2107002">
        <ele>102.9982910</ele>
        <time>2015-03-12T10:33:18Z</time>
      </trkpt>
      <trkpt lat="51.9379348" lon="7.2107985">
        <ele>100.1145020</ele>
        <time>2015-03-12T10:32:54Z</time>
      </trkpt>
      <trkpt lat="51.9375160" lon="7.2109313">
        <ele>97.2304688</ele>
        <time>2015-03-12T10:32:30Z</time>
      </trkpt>
      <trkpt lat="51.9370190" lon="7.2110747">
        <ele>95.7884521</ele>
        <time>2015-03-12T10:32:06Z</time>
      </trkpt>
      <trkpt lat="51.9364727" lon="7.2112004">
        <ele>94.3465576</ele>
        <time>2015-03-12T10:31:45Z</time>
      </trkpt>
      <trkpt lat="51.9357304" lon="7.2114245">
        <ele>91.9432373</ele>
        <time>2015-03-12T10:31:22Z</time>
      </trkpt>
      <trkpt lat="51.9350558" lon="7.2116475">
        <ele>90.9819336</ele>
        <time>2015-03-12T10:31:01Z</time>
      </trkpt>
      <trkpt lat="51.9342850" lon="7.2118453">
        <ele>87.6171875</ele>
        <time>2015-03-12T10:30:35Z</time>
      </trkpt>
      <trkpt lat="51.9334866" lon="7.2121849">
        <ele>85.2139893</ele>
        <time>2015-03-12T10:30:13Z</time>
      </trkpt>
      <trkpt lat="51.9331608" lon="7.2123509">
        <ele>85.2139893</ele>
        <time>2015-03-12T10:30:00Z</time>
      </trkpt>
      <trkpt lat="51.9330780" lon="7.2122263">
        <ele>84.7333984</ele>
        <time>2015-03-12T10:29:52Z</time>
      </trkpt>
      <trkpt lat="51.9327850" lon="7.2113375">
        <ele>83.7719727</ele>
        <time>2015-03-12T10:29:32Z</time>
      </trkpt>
      <trkpt lat="51.9324916" lon="7.2104866">
        <ele>84.2526855</ele>
        <time>2015-03-12T10:29:15Z</time>
      </trkpt>
      <trkpt lat="51.9323917" lon="7.2099326">
        <ele>84.7333984</ele>
        <time>2015-03-12T10:29:04Z</time>
      </trkpt>
      <trkpt lat="51.9324101" lon="7.2091038">
        <ele>84.7333984</ele>
        <time>2015-03-12T10:28:48Z</time>
      </trkpt>
      <trkpt lat="51.9323680" lon="7.2081626">
        <ele>83.7719727</ele>
        <time>2015-03-12T10:28:30Z</time>
      </trkpt>
      <trkpt lat="51.9323037" lon="7.2069225">
        <ele>83.7719727</ele>
        <time>2015-03-12T10:28:10Z</time>
      </trkpt>
      <trkpt lat="51.9322014" lon="7.2067738">
        <ele>83.7719727</ele>
        <time>2015-03-12T10:28:06Z</time>
      </trkpt>
      <trkpt lat="51.9321353" lon="7.2067870">
        <ele>83.2913818</ele>
        <time>2015-03-12T10:28:04Z</time>
      </trkpt>
      <trkpt lat="51.9314962" lon="7.2068795">
        <ele>83.7719727</ele>
        <time>2015-03-12T10:27:48Z</time>
      </trkpt>
      <trkpt lat="51.9313291" lon="7.2068914">
        <ele>83.7719727</ele>
        <time>2015-03-12T10:27:44Z</time>
      </trkpt>
      <trkpt lat="51.9312511" lon="7.2068970">
        <ele>84.2526855</ele>
        <time>2015-03-12T10:27:42Z</time>
      </trkpt>
      <trkpt lat="51.9311745" lon="7.2069269">
        <ele>84.7333984</ele>
        <time>2015-03-12T10:27:37Z</time>
      </trkpt>
      <trkpt lat="51.9311500" lon="7.2066778">
        <ele>84.7333984</ele>
        <time>2015-03-12T10:27:32Z</time>
      </trkpt>
      <trkpt lat="51.9310142" lon="7.2052517">
        <ele>82.8107910</ele>
        <time>2015-03-12T10:27:10Z</time>
      </trkpt>
      <trkpt lat="51.9309609" lon="7.2050913">
        <ele>83.2913818</ele>
        <time>2015-03-12T10:27:06Z</time>
      </trkpt>
      <trkpt lat="51.9309224" lon="7.2050827">
        <ele>83.2913818</ele>
        <time>2015-03-12T10:27:05Z</time>
      </trkpt>
      <trkpt lat="51.9296478" lon="7.2047996">
        <ele>86.6560059</ele>
        <time>2015-03-12T10:26:34Z</time>
      </trkpt>
      <trkpt lat="51.9287071" lon="7.2046121">
        <ele>85.6945801</ele>
        <time>2015-03-12T10:26:11Z</time>
      </trkpt>
      <trkpt lat="51.9276662" lon="7.2044428">
        <ele>88.5787354</ele>
        <time>2015-03-12T10:25:47Z</time>
      </trkpt>
      <trkpt lat="51.9265863" lon="7.2042674">
        <ele>89.0593262</ele>
        <time>2015-03-12T10:25:22Z</time>
      </trkpt>
      <trkpt lat="51.9258293" lon="7.2042096">
        <ele>90.5013428</ele>
        <time>2015-03-12T10:25:04Z</time>
      </trkpt>
      <trkpt lat="51.9257586" lon="7.2035518">
        <ele>87.6171875</ele>
        <time>2015-03-12T10:24:46Z</time>
      </trkpt>
      <trkpt lat="51.9258779" lon="7.2024288">
        <ele>87.1365967</ele>
        <time>2015-03-12T10:24:22Z</time>
      </trkpt>
      <trkpt lat="51.9260334" lon="7.2008390">
        <ele>84.7333984</ele>
        <time>2015-03-12T10:23:51Z</time>
      </trkpt>
      <trkpt lat="51.9261681" lon="7.1993312">
        <ele>82.8107910</ele>
        <time>2015-03-12T10:23:23Z</time>
      </trkpt>
      <trkpt lat="51.9263100" lon="7.1979184">
        <ele>81.3687744</ele>
        <time>2015-03-12T10:22:58Z</time>
      </trkpt>
      <trkpt lat="51.9264056" lon="7.1970172">
        <ele>80.4074707</ele>
        <time>2015-03-12T10:22:42Z</time>
      </trkpt>
      <trkpt lat="51.9264274" lon="7.1958411">
        <ele>79.4460449</ele>
        <time>2015-03-12T10:22:22Z</time>
      </trkpt>
      <trkpt lat="51.9264262" lon="7.1944887">
        <ele>80.8881836</ele>
        <time>2015-03-12T10:22:00Z</time>
      </trkpt>
      <trkpt lat="51.9263983" lon="7.1931993">
        <ele>80.8881836</ele>
        <time>2015-03-12T10:21:39Z</time>
      </trkpt>
      <trkpt lat="51.9263944" lon="7.1922045">
        <ele>81.3687744</ele>
        <time>2015-03-12T10:21:22Z</time>
      </trkpt>
      <trkpt lat="51.9261295" lon="7.1918270">
        <ele>81.3687744</ele>
        <time>2015-03-12T10:21:08Z</time>
      </trkpt>
      <trkpt lat="51.9256307" lon="7.1918238">
        <ele>81.3687744</ele>
        <time>2015-03-12T10:20:52Z</time>
      </trkpt>
      <trkpt lat="51.9248656" lon="7.1916835">
        <ele>80.8881836</ele>
        <time>2015-03-12T10:20:27Z</time>
      </trkpt>
      <trkpt lat="51.9240610" lon="7.1915713">
        <ele>79.4460449</ele>
        <time>2015-03-12T10:20:01Z</time>
      </trkpt>
      <trkpt lat="51.9235581" lon="7.1914624">
        <ele>78.4847412</ele>
        <time>2015-03-12T10:19:42Z</time>
      </trkpt>
      <trkpt lat="51.9234817" lon="7.1914770">
        <ele>78.9654541</ele>
        <time>2015-03-12T10:19:24Z</time>
      </trkpt>
      <trkpt lat="51.9231387" lon="7.1914267">
        <ele>78.0040283</ele>
        <time>2015-03-12T10:18:56Z</time>
      </trkpt>
      <trkpt lat="51.9230928" lon="7.1918030">
        <ele>78.0040283</ele>
        <time>2015-03-12T10:18:31Z</time>
      </trkpt>
      <trkpt lat="51.9231111" lon="7.1923324">
        <ele>78.4847412</ele>
        <time>2015-03-12T10:18:02Z</time>
      </trkpt>
      <trkpt lat="51.9230658" lon="7.1927922">
        <ele>78.9654541</ele>
        <time>2015-03-12T10:17:36Z</time>
      </trkpt>
      <trkpt lat="51.9230204" lon="7.1929849">
        <ele>78.4847412</ele>
        <time>2015-03-12T10:17:04Z</time>
      </trkpt>
      <trkpt lat="51.9230105" lon="7.1930331">
        <ele>78.4847412</ele>
        <time>2015-03-12T10:16:50Z</time>
      </trkpt>
      <trkpt lat="51.9229283" lon="7.1936252">
        <ele>78.4847412</ele>
        <time>2015-03-12T10:16:30Z</time>
      </trkpt>
      <trkpt lat="51.9228134" lon="7.1942270">
        <ele>79.4460449</ele>
        <time>2015-03-12T10:16:10Z</time>
      </trkpt>
      <trkpt lat="51.9227981" lon="7.1944186">
        <ele>78.9654541</ele>
        <time>2015-03-12T10:15:55Z</time>
      </trkpt>
      <trkpt lat="51.9226796" lon="7.1948349">
        <ele>78.9654541</ele>
        <time>2015-03-12T10:15:30Z</time>
      </trkpt>
      <trkpt lat="51.9226498" lon="7.1950000">
        <ele>78.9654541</ele>
        <time>2015-03-12T10:15:15Z</time>
      </trkpt>
      <trkpt lat="51.9225742" lon="7.1955163">
        <ele>79.4460449</ele>
        <time>2015-03-12T10:14:58Z</time>
      </trkpt>
      <trkpt lat="51.9225837" lon="7.1956182">
        <ele>79.9266357</ele>
        <time>2015-03-12T10:14:53Z</time>
      </trkpt>
      <trkpt lat="51.9225451" lon="7.1961621">
        <ele>79.4460449</ele>
        <time>2015-03-12T10:14:40Z</time>
      </trkpt>
      <trkpt lat="51.9224584" lon="7.1963876">
        <ele>79.4460449</ele>
        <time>2015-03-12T10:14:35Z</time>
      </trkpt>
      <trkpt lat="51.9214548" lon="7.1960027">
        <ele>78.9654541</ele>
        <time>2015-03-12T10:14:11Z</time>
      </trkpt>
      <trkpt lat="51.9203627" lon="7.1955838">
        <ele>77.5234375</ele>
        <time>2015-03-12T10:13:44Z</time>
      </trkpt>
      <trkpt lat="51.9196442" lon="7.1953082">
        <ele>78.0040283</ele>
        <time>2015-03-12T10:13:26Z</time>
      </trkpt>
      <trkpt lat="51.9189006" lon="7.1948871">
        <ele>77.0428467</ele>
        <time>2015-03-12T10:13:06Z</time>
      </trkpt>
      <trkpt lat="51.9179486" lon="7.1941940">
        <ele>77.5234375</ele>
        <time>2015-03-12T10:12:39Z</time>
      </trkpt>
      <trkpt lat="51.9177663" lon="7.1940569">
        <ele>76.0814209</ele>
        <time>2015-03-12T10:12:32Z</time>
      </trkpt>
      <trkpt lat="51.9175342" lon="7.1947394">
        <ele>76.5621338</ele>
        <time>2015-03-12T10:12:20Z</time>
      </trkpt>
      <trkpt lat="51.9174740" lon="7.1949362">
        <ele>77.0428467</ele>
        <time>2015-03-12T10:12:17Z</time>
      </trkpt>
      <trkpt lat="51.9170866" lon="7.1962074">
        <ele>76.0814209</ele>
        <time>2015-03-12T10:11:56Z</time>
      </trkpt>
      <trkpt lat="51.9167149" lon="7.1976603">
        <ele>76.0814209</ele>
        <time>2015-03-12T10:11:33Z</time>
      </trkpt>
      <trkpt lat="51.9165551" lon="7.1979847">
        <ele>77.0428467</ele>
        <time>2015-03-12T10:11:29Z</time>
      </trkpt>
      <trkpt lat="51.9160976" lon="7.1977561">
        <ele>76.5621338</ele>
        <time>2015-03-12T10:11:17Z</time>
      </trkpt>
      <trkpt lat="51.9154485" lon="7.1973373">
        <ele>75.1202393</ele>
        <time>2015-03-12T10:11:00Z</time>
      </trkpt>
      <trkpt lat="51.9145687" lon="7.1967170">
        <ele>75.1202393</ele>
        <time>2015-03-12T10:10:37Z</time>
      </trkpt>
      <trkpt lat="51.9138363" lon="7.1962570">
        <ele>76.5621338</ele>
        <time>2015-03-12T10:10:19Z</time>
      </trkpt>
      <trkpt lat="51.9128225" lon="7.1956205">
        <ele>77.5234375</ele>
        <time>2015-03-12T10:09:55Z</time>
      </trkpt>
      <trkpt lat="51.9117893" lon="7.1949717">
        <ele>78.4847412</ele>
        <time>2015-03-12T10:09:31Z</time>
      </trkpt>
      <trkpt lat="51.9113528" lon="7.1946969">
        <ele>79.9266357</ele>
        <time>2015-03-12T10:09:21Z</time>
      </trkpt>
      <trkpt lat="51.9106332" lon="7.1942416">
        <ele>80.8881836</ele>
        <time>2015-03-12T10:09:02Z</time>
      </trkpt>
      <trkpt lat="51.9097523" lon="7.1936843">
        <ele>79.4460449</ele>
        <time>2015-03-12T10:08:36Z</time>
      </trkpt>
      <trkpt lat="51.9092706" lon="7.1932735">
        <ele>78.9654541</ele>
        <time>2015-03-12T10:08:18Z</time>
      </trkpt>
      <trkpt lat="51.9088227" lon="7.1926578">
        <ele>76.0814209</ele>
        <time>2015-03-12T10:08:00Z</time>
      </trkpt>
      <trkpt lat="51.9082077" lon="7.1918121">
        <ele>73.6782227</ele>
        <time>2015-03-12T10:07:41Z</time>
      </trkpt>
      <trkpt lat="51.9080556" lon="7.1916030">
        <ele>74.1588135</ele>
        <time>2015-03-12T10:07:37Z</time>
      </trkpt>
      <trkpt lat="51.9077914" lon="7.1910948">
        <ele>75.6008301</ele>
        <time>2015-03-12T10:07:33Z</time>
      </trkpt>
      <trkpt lat="51.9076785" lon="7.1913570">
        <ele>73.1976318</ele>
        <time>2015-03-12T10:07:25Z</time>
      </trkpt>
      <trkpt lat="51.9070891" lon="7.1924987">
        <ele>73.1976318</ele>
        <time>2015-03-12T10:07:02Z</time>
      </trkpt>
      <trkpt lat="51.9063388" lon="7.1936070">
        <ele>72.7169189</ele>
        <time>2015-03-12T10:06:36Z</time>
      </trkpt>
      <trkpt lat="51.9057250" lon="7.1943493">
        <ele>74.1588135</ele>
        <time>2015-03-12T10:06:15Z</time>
      </trkpt>
      <trkpt lat="51.9053055" lon="7.1959764">
        <ele>73.6782227</ele>
        <time>2015-03-12T10:05:53Z</time>
      </trkpt>
      <trkpt lat="51.9046023" lon="7.1970699">
        <ele>73.1976318</ele>
        <time>2015-03-12T10:05:28Z</time>
      </trkpt>
      <trkpt lat="51.9038773" lon="7.1981478">
        <ele>73.1976318</ele>
        <time>2015-03-12T10:05:08Z</time>
      </trkpt>
      <trkpt lat="51.9038328" lon="7.1980987">
        <ele>73.6782227</ele>
        <time>2015-03-12T10:05:04Z</time>
      </trkpt>
      <trkpt lat="51.9036869" lon="7.1979383">
        <ele>73.1976318</ele>
        <time>2015-03-12T10:04:59Z</time>
      </trkpt>
      <trkpt lat="51.9030790" lon="7.1972696">
        <ele>72.2362061</ele>
        <time>2015-03-12T10:04:42Z</time>
      </trkpt>
      <trkpt lat="51.9027686" lon="7.1969281">
        <ele>74.1588135</ele>
        <time>2015-03-12T10:04:34Z</time>
      </trkpt>
      <trkpt lat="51.9022140" lon="7.1963085">
        <ele>73.6782227</ele>
        <time>2015-03-12T10:04:10Z</time>
      </trkpt>
      <trkpt lat="51.9017444" lon="7.1957803">
        <ele>70.3134766</ele>
        <time>2015-03-12T10:03:48Z</time>
      </trkpt>
      <trkpt lat="51.9013230" lon="7.1953062">
        <ele>66.9489746</ele>
        <time>2015-03-12T10:03:30Z</time>
      </trkpt>
      <trkpt lat="51.9008701" lon="7.1947966">
        <ele>65.5070801</ele>
        <time>2015-03-12T10:03:11Z</time>
      </trkpt>
      <trkpt lat="51.9003493" lon="7.1941783">
        <ele>63.1036377</ele>
        <time>2015-03-12T10:02:53Z</time>
      </trkpt>
      <trkpt lat="51.9001680" lon="7.1940683">
        <ele>63.1036377</ele>
        <time>2015-03-12T10:02:49Z</time>
      </trkpt>
      <trkpt lat="51.8996506" lon="7.1938808">
        <ele>79.8554688</ele>
      </trkpt>
      <trkpt lat="51.8996236" lon="7.1938479">
        <ele>79.8554688</ele>
      </trkpt>
      <trkpt lat="51.8993002" lon="7.1936176">
        <ele>79.8554688</ele>
      </trkpt>
      <trkpt lat="51.8993002" lon="7.1935847">
        <ele>79.8554688</ele>
      </trkpt>
      <trkpt lat="51.8989499" lon="7.1933215">
        <ele>79.8515625</ele>
      </trkpt>
      <trkpt lat="51.8987074" lon="7.1934202">
        <ele>79.8554688</ele>
      </trkpt>
      <trkpt lat="51.8985726" lon="7.1931570">
        <ele>79.2265625</ele>
      </trkpt>
      <trkpt lat="51.8983840" lon="7.1930912">
        <ele>78.9453125</ele>
      </trkpt>
      <trkpt lat="51.8985457" lon="7.1921371">
        <ele>78.9414063</ele>
      </trkpt>
      <trkpt lat="51.8978450" lon="7.1913475">
        <ele>78.0273438</ele>
      </trkpt>
      <trkpt lat="51.8973329" lon="7.1906896">
        <ele>77.1132813</ele>
      </trkpt>
      <trkpt lat="51.8973329" lon="7.1906566">
        <ele>77.1132813</ele>
      </trkpt>
      <trkpt lat="51.8971443" lon="7.1902618">
        <ele>76.0625000</ele>
      </trkpt>
      <trkpt lat="51.8971712" lon="7.1902618">
        <ele>76.0937500</ele>
      </trkpt>
      <trkpt lat="51.8969287" lon="7.1908212">
        <ele>76.8828125</ele>
      </trkpt>
      <trkpt lat="51.8966323" lon="7.1906896">
        <ele>76.7929688</ele>
      </trkpt>
      <trkpt lat="51.8966592" lon="7.1906896">
        <ele>76.7460938</ele>
      </trkpt>
      <trkpt lat="51.8963089" lon="7.1902618">
        <ele>75.8945313</ele>
      </trkpt>
    </trkseg>
  </trk>

</gpx>
